sensor_id;sensor_type;location;lat;lon;timestamp;pressure;altitude;pressure_sealevel;temperature;humidity
9676;BME280;4876;42.656;23.292;2023-04-08T00:01:14;94415.72;;;6.26;66.82
9676;BME280;4876;42.656;23.292;2023-04-08T00:03:41;94407.13;;;6.02;67.66
9676;BME280;4876;42.656;23.292;2023-04-08T00:06:09;94410.84;;;6.19;67.16
9676;BME280;4876;42.656;23.292;2023-04-08T00:08:36;94409.69;;;6.07;67.37
9676;BME280;4876;42.656;23.292;2023-04-08T00:11:02;94408.53;;;5.94;67.71
9676;BME280;4876;42.656;23.292;2023-04-08T00:13:29;94412.88;;;6.04;67.54
9676;BME280;4876;42.656;23.292;2023-04-08T00:15:56;94413.31;;;6.11;67.30
9676;BME280;4876;42.656;23.292;2023-04-08T00:18:23;94412.09;;;6.03;67.77
9676;BME280;4876;42.656;23.292;2023-04-08T00:20:50;94408.84;;;5.87;67.61
9676;BME280;4876;42.656;23.292;2023-04-08T00:23:18;94406.84;;;5.79;68.04
9676;BME280;4876;42.656;23.292;2023-04-08T00:25:45;94408.88;;;5.82;68.25
9676;BME280;4876;42.656;23.292;2023-04-08T00:28:12;94407.22;;;5.97;67.63
9676;BME280;4876;42.656;23.292;2023-04-08T00:30:39;94410.22;;;6.09;67.72
9676;BME280;4876;42.656;23.292;2023-04-08T00:33:06;94399.75;;;6.09;67.03
9676;BME280;4876;42.656;23.292;2023-04-08T00:35:34;94404.53;;;6.02;67.30
9676;BME280;4876;42.656;23.292;2023-04-08T00:38:01;94395.75;;;5.92;67.16
9676;BME280;4876;42.656;23.292;2023-04-08T00:40:29;94406.59;;;6.05;66.96
9676;BME280;4876;42.656;23.292;2023-04-08T00:42:56;94416.53;;;6.03;66.97
9676;BME280;4876;42.656;23.292;2023-04-08T00:45:23;94409.50;;;6.03;67.21
9676;BME280;4876;42.656;23.292;2023-04-08T00:47:50;94409.25;;;6.00;67.02
9676;BME280;4876;42.656;23.292;2023-04-08T00:50:17;94417.03;;;6.05;67.49
9676;BME280;4876;42.656;23.292;2023-04-08T00:52:45;94408.28;;;5.90;67.78
9676;BME280;4876;42.656;23.292;2023-04-08T00:55:11;94417.44;;;5.88;68.69
9676;BME280;4876;42.656;23.292;2023-04-08T00:57:40;94408.94;;;5.77;69.25
9676;BME280;4876;42.656;23.292;2023-04-08T01:00:08;94409.19;;;5.52;69.41
9676;BME280;4876;42.656;23.292;2023-04-08T01:02:39;94409.03;;;5.43;70.03
9676;BME280;4876;42.656;23.292;2023-04-08T01:05:19;94414.59;;;5.31;69.88
9676;BME280;4876;42.656;23.292;2023-04-08T01:07:49;94417.28;;;5.21;70.67
9676;BME280;4876;42.656;23.292;2023-04-08T01:10:20;94420.47;;;5.13;71.71
9676;BME280;4876;42.656;23.292;2023-04-08T01:12:51;94416.16;;;5.03;71.37
9676;BME280;4876;42.656;23.292;2023-04-08T01:15:20;94425.75;;;5.03;71.84
9676;BME280;4876;42.656;23.292;2023-04-08T01:17:49;94428.47;;;4.93;73.20
9676;BME280;4876;42.656;23.292;2023-04-08T01:20:19;94401.53;;;4.68;73.82
9676;BME280;4876;42.656;23.292;2023-04-08T01:22:57;94420.94;;;4.86;73.49
9676;BME280;4876;42.656;23.292;2023-04-08T01:25:30;94421.63;;;4.97;73.98
9676;BME280;4876;42.656;23.292;2023-04-08T01:28:00;94416.28;;;5.17;72.29
9676;BME280;4876;42.656;23.292;2023-04-08T01:30:28;94418.84;;;5.22;72.09
9676;BME280;4876;42.656;23.292;2023-04-08T01:32:56;94392.91;;;5.07;71.37
9676;BME280;4876;42.656;23.292;2023-04-08T01:35:25;94414.75;;;5.16;70.83
9676;BME280;4876;42.656;23.292;2023-04-08T01:37:52;94406.44;;;5.09;71.25
9676;BME280;4876;42.656;23.292;2023-04-08T01:40:20;94416.00;;;5.19;71.92
9676;BME280;4876;42.656;23.292;2023-04-08T01:42:48;94339.97;;;4.43;72.30
9676;BME280;4876;42.656;23.292;2023-04-08T01:45:18;94413.09;;;4.91;72.93
9676;BME280;4876;42.656;23.292;2023-04-08T01:47:47;94419.59;;;4.94;72.91
9676;BME280;4876;42.656;23.292;2023-04-08T01:50:15;94415.44;;;4.93;73.78
9676;BME280;4876;42.656;23.292;2023-04-08T01:52:43;94424.31;;;4.92;74.67
9676;BME280;4876;42.656;23.292;2023-04-08T01:55:11;94415.16;;;4.94;74.73
9676;BME280;4876;42.656;23.292;2023-04-08T01:57:39;94425.28;;;4.96;75.43
9676;BME280;4876;42.656;23.292;2023-04-08T02:00:09;94407.16;;;4.85;75.27
9676;BME280;4876;42.656;23.292;2023-04-08T02:02:39;94420.13;;;4.91;74.39
9676;BME280;4876;42.656;23.292;2023-04-08T02:05:08;94433.22;;;4.80;75.12
9676;BME280;4876;42.656;23.292;2023-04-08T02:07:34;94415.03;;;4.75;74.08
9676;BME280;4876;42.656;23.292;2023-04-08T02:10:02;94440.97;;;4.91;73.92
9676;BME280;4876;42.656;23.292;2023-04-08T02:12:29;94439.63;;;4.98;73.46
9676;BME280;4876;42.656;23.292;2023-04-08T02:14:56;94442.06;;;5.19;72.99
9676;BME280;4876;42.656;23.292;2023-04-08T02:17:26;94437.59;;;5.24;72.03
9676;BME280;4876;42.656;23.292;2023-04-08T02:20:01;94452.28;;;5.44;70.40
9676;BME280;4876;42.656;23.292;2023-04-08T02:22:30;94453.53;;;5.52;69.72
9676;BME280;4876;42.656;23.292;2023-04-08T02:25:07;94452.69;;;5.61;68.96
9676;BME280;4876;42.656;23.292;2023-04-08T02:27:36;94451.25;;;5.74;68.42
9676;BME280;4876;42.656;23.292;2023-04-08T02:30:06;94450.16;;;5.80;68.63
9676;BME280;4876;42.656;23.292;2023-04-08T02:32:34;94425.25;;;5.64;69.53
9676;BME280;4876;42.656;23.292;2023-04-08T02:35:04;94447.03;;;5.78;70.99
9676;BME280;4876;42.656;23.292;2023-04-08T02:37:31;94449.91;;;5.77;71.41
9676;BME280;4876;42.656;23.292;2023-04-08T02:39:58;94440.38;;;5.67;71.50
9676;BME280;4876;42.656;23.292;2023-04-08T02:42:26;94450.88;;;5.57;71.95
9676;BME280;4876;42.656;23.292;2023-04-08T02:44:52;94446.47;;;5.52;72.45
9676;BME280;4876;42.656;23.292;2023-04-08T02:47:19;94439.47;;;5.53;72.72
9676;BME280;4876;42.656;23.292;2023-04-08T02:49:46;94442.19;;;5.66;71.85
9676;BME280;4876;42.656;23.292;2023-04-08T02:52:18;94442.78;;;5.58;71.86
9676;BME280;4876;42.656;23.292;2023-04-08T02:54:45;94444.44;;;5.49;72.53
9676;BME280;4876;42.656;23.292;2023-04-08T02:57:12;94438.91;;;5.56;72.38
9676;BME280;4876;42.656;23.292;2023-04-08T02:59:38;94438.03;;;5.36;72.15
9676;BME280;4876;42.656;23.292;2023-04-08T03:02:05;94442.22;;;5.32;71.65
9676;BME280;4876;42.656;23.292;2023-04-08T03:04:32;94450.50;;;5.39;71.42
9676;BME280;4876;42.656;23.292;2023-04-08T03:06:59;94444.50;;;5.39;71.37
9676;BME280;4876;42.656;23.292;2023-04-08T03:09:27;94448.34;;;5.18;71.49
9676;BME280;4876;42.656;23.292;2023-04-08T03:11:54;94440.47;;;4.89;73.86
9676;BME280;4876;42.656;23.292;2023-04-08T03:14:21;94447.09;;;5.10;73.64
9676;BME280;4876;42.656;23.292;2023-04-08T03:16:47;94441.47;;;5.27;72.15
9676;BME280;4876;42.656;23.292;2023-04-08T03:19:14;94441.66;;;5.40;72.09
9676;BME280;4876;42.656;23.292;2023-04-08T03:21:41;94440.44;;;5.57;70.56
9676;BME280;4876;42.656;23.292;2023-04-08T03:24:08;94441.00;;;5.54;71.32
9676;BME280;4876;42.656;23.292;2023-04-08T03:26:36;94441.06;;;5.49;70.50
9676;BME280;4876;42.656;23.292;2023-04-08T03:29:03;94442.84;;;5.53;70.88
9676;BME280;4876;42.656;23.292;2023-04-08T03:31:31;94442.53;;;5.60;70.48
9676;BME280;4876;42.656;23.292;2023-04-08T03:33:58;94452.88;;;5.65;69.90
9676;BME280;4876;42.656;23.292;2023-04-08T03:36:24;94449.13;;;5.76;68.75
9676;BME280;4876;42.656;23.292;2023-04-08T03:38:52;94450.69;;;5.77;68.95
9676;BME280;4876;42.656;23.292;2023-04-08T03:41:19;94454.66;;;5.70;69.37
9676;BME280;4876;42.656;23.292;2023-04-08T03:43:47;94445.56;;;5.67;69.73
9676;BME280;4876;42.656;23.292;2023-04-08T03:46:13;94443.91;;;5.76;69.09
9676;BME280;4876;42.656;23.292;2023-04-08T03:48:40;94440.72;;;5.84;69.39
9676;BME280;4876;42.656;23.292;2023-04-08T03:51:07;94449.25;;;5.66;69.54
9676;BME280;4876;42.656;23.292;2023-04-08T03:53:34;94450.72;;;5.48;69.74
9676;BME280;4876;42.656;23.292;2023-04-08T03:56:01;94432.53;;;5.38;70.48
9676;BME280;4876;42.656;23.292;2023-04-08T03:58:28;94444.75;;;5.72;70.08
9676;BME280;4876;42.656;23.292;2023-04-08T04:00:57;94442.81;;;5.82;70.66
9676;BME280;4876;42.656;23.292;2023-04-08T04:03:25;94440.63;;;5.94;70.43
9676;BME280;4876;42.656;23.292;2023-04-08T04:05:51;94443.81;;;5.91;70.18
9676;BME280;4876;42.656;23.292;2023-04-08T04:08:18;94445.47;;;5.77;71.11
9676;BME280;4876;42.656;23.292;2023-04-08T04:10:45;94445.22;;;5.79;71.57
9676;BME280;4876;42.656;23.292;2023-04-08T04:13:12;94440.91;;;5.64;72.01
9676;BME280;4876;42.656;23.292;2023-04-08T04:15:39;94427.38;;;5.62;72.46
9676;BME280;4876;42.656;23.292;2023-04-08T04:18:07;94453.81;;;5.79;72.42
9676;BME280;4876;42.656;23.292;2023-04-08T04:20:34;94454.47;;;5.66;72.89
9676;BME280;4876;42.656;23.292;2023-04-08T04:23:02;94448.97;;;5.67;72.84
9676;BME280;4876;42.656;23.292;2023-04-08T04:25:29;94456.09;;;5.57;73.26
9676;BME280;4876;42.656;23.292;2023-04-08T04:27:56;94461.97;;;5.73;72.89
9676;BME280;4876;42.656;23.292;2023-04-08T04:30:23;94462.91;;;5.82;71.99
9676;BME280;4876;42.656;23.292;2023-04-08T04:32:50;94461.63;;;5.79;71.82
9676;BME280;4876;42.656;23.292;2023-04-08T04:35:18;94459.25;;;5.83;70.63
9676;BME280;4876;42.656;23.292;2023-04-08T04:37:45;94462.09;;;5.86;70.10
9676;BME280;4876;42.656;23.292;2023-04-08T04:40:14;94463.81;;;5.96;69.54
9676;BME280;4876;42.656;23.292;2023-04-08T04:42:41;94464.22;;;6.08;68.68
9676;BME280;4876;42.656;23.292;2023-04-08T04:45:08;94466.56;;;6.10;68.08
9676;BME280;4876;42.656;23.292;2023-04-08T04:47:35;94463.19;;;6.09;68.40
9676;BME280;4876;42.656;23.292;2023-04-08T04:50:03;94463.06;;;6.19;68.02
9676;BME280;4876;42.656;23.292;2023-04-08T04:52:31;94468.09;;;6.16;67.82
9676;BME280;4876;42.656;23.292;2023-04-08T04:54:58;94473.63;;;6.09;68.20
9676;BME280;4876;42.656;23.292;2023-04-08T04:57:24;94469.16;;;6.15;67.78
9676;BME280;4876;42.656;23.292;2023-04-08T04:59:51;94481.28;;;6.25;66.46
9676;BME280;4876;42.656;23.292;2023-04-08T05:02:18;94472.97;;;6.23;66.18
9676;BME280;4876;42.656;23.292;2023-04-08T05:04:45;94470.75;;;6.11;66.82
9676;BME280;4876;42.656;23.292;2023-04-08T05:07:11;94476.50;;;6.08;66.95
9676;BME280;4876;42.656;23.292;2023-04-08T05:09:40;94472.63;;;6.05;67.54
9676;BME280;4876;42.656;23.292;2023-04-08T05:12:06;94469.19;;;6.10;68.51
9676;BME280;4876;42.656;23.292;2023-04-08T05:14:33;94464.13;;;5.89;70.80
9676;BME280;4876;42.656;23.292;2023-04-08T05:17:00;94466.44;;;5.96;71.38
9676;BME280;4876;42.656;23.292;2023-04-08T05:19:27;94472.56;;;5.52;72.48
9676;BME280;4876;42.656;23.292;2023-04-08T05:21:54;94472.38;;;5.44;73.29
9676;BME280;4876;42.656;23.292;2023-04-08T05:24:21;94469.63;;;5.59;72.55
9676;BME280;4876;42.656;23.292;2023-04-08T05:26:49;94467.53;;;5.61;72.22
9676;BME280;4876;42.656;23.292;2023-04-08T05:29:17;94473.50;;;5.66;72.79
9676;BME280;4876;42.656;23.292;2023-04-08T05:31:46;94476.06;;;5.72;72.52
9676;BME280;4876;42.656;23.292;2023-04-08T05:34:12;94471.41;;;5.98;70.53
9676;BME280;4876;42.656;23.292;2023-04-08T05:36:40;94473.75;;;5.65;71.38
9676;BME280;4876;42.656;23.292;2023-04-08T05:39:06;94471.66;;;5.67;71.88
9676;BME280;4876;42.656;23.292;2023-04-08T05:41:33;94470.47;;;6.12;69.74
9676;BME280;4876;42.656;23.292;2023-04-08T05:44:01;94473.31;;;5.87;71.04
9676;BME280;4876;42.656;23.292;2023-04-08T05:46:28;94473.09;;;5.54;71.50
9676;BME280;4876;42.656;23.292;2023-04-08T05:48:55;94470.03;;;5.47;71.18
9676;BME280;4876;42.656;23.292;2023-04-08T05:51:22;94466.31;;;5.53;70.95
9676;BME280;4876;42.656;23.292;2023-04-08T05:53:51;94467.13;;;5.49;70.32
9676;BME280;4876;42.656;23.292;2023-04-08T05:56:20;94468.91;;;5.82;68.89
9676;BME280;4876;42.656;23.292;2023-04-08T05:58:47;94467.16;;;6.02;68.06
9676;BME280;4876;42.656;23.292;2023-04-08T06:01:18;94455.13;;;6.06;67.89
9676;BME280;4876;42.656;23.292;2023-04-08T06:03:51;94467.16;;;6.02;68.13
9676;BME280;4876;42.656;23.292;2023-04-08T06:06:20;94420.59;;;5.61;68.44
9676;BME280;4876;42.656;23.292;2023-04-08T06:08:56;94462.34;;;6.14;67.95
9676;BME280;4876;42.656;23.292;2023-04-08T06:11:26;94441.22;;;5.86;68.32
9676;BME280;4876;42.656;23.292;2023-04-08T06:13:53;94452.50;;;6.06;69.20
9676;BME280;4876;42.656;23.292;2023-04-08T06:16:21;94415.03;;;5.97;68.32
9676;BME280;4876;42.656;23.292;2023-04-08T06:18:50;94443.81;;;6.15;68.20
9676;BME280;4876;42.656;23.292;2023-04-08T06:21:20;94463.06;;;6.43;66.93
9676;BME280;4876;42.656;23.292;2023-04-08T06:23:47;94473.56;;;6.38;66.82
9676;BME280;4876;42.656;23.292;2023-04-08T06:26:13;94472.00;;;6.37;67.21
9676;BME280;4876;42.656;23.292;2023-04-08T06:28:40;94458.03;;;6.28;67.19
9676;BME280;4876;42.656;23.292;2023-04-08T06:31:07;94460.16;;;6.45;67.81
9676;BME280;4876;42.656;23.292;2023-04-08T06:33:35;94437.63;;;6.30;68.17
9676;BME280;4876;42.656;23.292;2023-04-08T06:36:02;94474.66;;;6.75;65.68
9676;BME280;4876;42.656;23.292;2023-04-08T06:38:30;94440.22;;;6.73;66.01
9676;BME280;4876;42.656;23.292;2023-04-08T06:41:01;94473.84;;;6.98;65.05
9676;BME280;4876;42.656;23.292;2023-04-08T06:43:28;94472.13;;;7.08;64.57
9676;BME280;4876;42.656;23.292;2023-04-08T06:45:55;94473.13;;;7.12;64.69
9676;BME280;4876;42.656;23.292;2023-04-08T06:48:25;94459.50;;;7.15;64.58
9676;BME280;4876;42.656;23.292;2023-04-08T06:50:56;94478.63;;;7.29;64.76
9676;BME280;4876;42.656;23.292;2023-04-08T06:53:23;94479.66;;;7.47;63.99
9676;BME280;4876;42.656;23.292;2023-04-08T06:55:51;94480.63;;;6.99;64.70
9676;BME280;4876;42.656;23.292;2023-04-08T06:58:17;94479.19;;;7.26;64.48
9676;BME280;4876;42.656;23.292;2023-04-08T07:00:44;94478.72;;;7.56;63.58
9676;BME280;4876;42.656;23.292;2023-04-08T07:03:11;94483.13;;;7.42;64.27
9676;BME280;4876;42.656;23.292;2023-04-08T07:05:38;94484.19;;;7.74;63.29
9676;BME280;4876;42.656;23.292;2023-04-08T07:08:08;94477.03;;;7.79;62.61
9676;BME280;4876;42.656;23.292;2023-04-08T07:10:34;94475.34;;;7.37;63.51
9676;BME280;4876;42.656;23.292;2023-04-08T07:13:01;94482.09;;;7.24;64.61
9676;BME280;4876;42.656;23.292;2023-04-08T07:15:28;94489.53;;;7.17;65.18
9676;BME280;4876;42.656;23.292;2023-04-08T07:17:55;94484.06;;;7.14;65.97
9676;BME280;4876;42.656;23.292;2023-04-08T07:20:23;94482.66;;;7.21;66.00
9676;BME280;4876;42.656;23.292;2023-04-08T07:22:50;94490.09;;;7.14;65.91
9676;BME280;4876;42.656;23.292;2023-04-08T07:25:18;94485.91;;;7.13;66.25
9676;BME280;4876;42.656;23.292;2023-04-08T07:27:45;94490.00;;;7.19;66.47
9676;BME280;4876;42.656;23.292;2023-04-08T07:30:12;94491.34;;;7.36;65.96
9676;BME280;4876;42.656;23.292;2023-04-08T07:32:39;94492.44;;;7.48;65.49
9676;BME280;4876;42.656;23.292;2023-04-08T07:35:06;94500.31;;;7.48;65.17
9676;BME280;4876;42.656;23.292;2023-04-08T07:37:33;94495.56;;;7.50;65.62
9676;BME280;4876;42.656;23.292;2023-04-08T07:40:00;94498.41;;;7.68;64.68
9676;BME280;4876;42.656;23.292;2023-04-08T07:42:28;94506.31;;;7.81;64.91
9676;BME280;4876;42.656;23.292;2023-04-08T07:44:54;94509.69;;;7.82;64.65
9676;BME280;4876;42.656;23.292;2023-04-08T07:47:21;94508.28;;;7.90;64.48
9676;BME280;4876;42.656;23.292;2023-04-08T07:49:48;94508.22;;;8.08;63.71
9676;BME280;4876;42.656;23.292;2023-04-08T07:52:15;94513.06;;;8.15;64.20
9676;BME280;4876;42.656;23.292;2023-04-08T07:54:42;94512.59;;;8.27;63.94
9676;BME280;4876;42.656;23.292;2023-04-08T07:57:08;94513.69;;;8.53;63.15
9676;BME280;4876;42.656;23.292;2023-04-08T07:59:37;94523.13;;;8.54;62.42
9676;BME280;4876;42.656;23.292;2023-04-08T08:02:03;94523.50;;;8.61;61.84
9676;BME280;4876;42.656;23.292;2023-04-08T08:04:30;94526.91;;;8.76;61.63
9676;BME280;4876;42.656;23.292;2023-04-08T08:06:57;94529.41;;;8.81;61.88
9676;BME280;4876;42.656;23.292;2023-04-08T08:09:24;94526.63;;;8.63;62.18
9676;BME280;4876;42.656;23.292;2023-04-08T08:11:50;94524.78;;;8.64;61.74
9676;BME280;4876;42.656;23.292;2023-04-08T08:14:17;94530.06;;;8.86;62.01
9676;BME280;4876;42.656;23.292;2023-04-08T08:16:46;94524.00;;;8.63;62.11
9676;BME280;4876;42.656;23.292;2023-04-08T08:19:14;94518.66;;;8.55;63.08
9676;BME280;4876;42.656;23.292;2023-04-08T08:21:40;94529.03;;;8.74;63.15
9676;BME280;4876;42.656;23.292;2023-04-08T08:24:07;94525.22;;;8.80;62.76
9676;BME280;4876;42.656;23.292;2023-04-08T08:26:34;94529.72;;;8.66;63.41
9676;BME280;4876;42.656;23.292;2023-04-08T08:29:02;94534.09;;;8.70;63.46
9676;BME280;4876;42.656;23.292;2023-04-08T08:31:29;94530.69;;;8.70;62.90
9676;BME280;4876;42.656;23.292;2023-04-08T08:33:57;94528.53;;;8.85;62.88
9676;BME280;4876;42.656;23.292;2023-04-08T08:36:24;94525.78;;;9.04;62.17
9676;BME280;4876;42.656;23.292;2023-04-08T08:38:51;94528.94;;;8.79;62.23
9676;BME280;4876;42.656;23.292;2023-04-08T08:41:18;94533.19;;;9.02;62.05
9676;BME280;4876;42.656;23.292;2023-04-08T08:43:45;94530.19;;;8.95;62.50
9676;BME280;4876;42.656;23.292;2023-04-08T08:46:15;94531.41;;;9.11;60.36
9676;BME280;4876;42.656;23.292;2023-04-08T08:48:43;94526.25;;;9.20;60.46
9676;BME280;4876;42.656;23.292;2023-04-08T08:51:12;94525.75;;;9.18;59.87
9676;BME280;4876;42.656;23.292;2023-04-08T08:53:39;94524.44;;;9.07;60.10
9676;BME280;4876;42.656;23.292;2023-04-08T08:56:09;94529.38;;;9.08;60.18
9676;BME280;4876;42.656;23.292;2023-04-08T08:58:36;94529.84;;;9.10;59.90
9676;BME280;4876;42.656;23.292;2023-04-08T09:01:34;94530.56;;;9.02;60.83
9676;BME280;4876;42.656;23.292;2023-04-08T09:04:10;94530.06;;;9.00;61.88
9676;BME280;4876;42.656;23.292;2023-04-08T09:06:38;94533.22;;;8.88;62.62
9676;BME280;4876;42.656;23.292;2023-04-08T09:09:07;94527.16;;;9.02;63.23
9676;BME280;4876;42.656;23.292;2023-04-08T09:11:38;94543.13;;;9.28;61.39
9676;BME280;4876;42.656;23.292;2023-04-08T09:14:16;94526.72;;;9.22;62.44
9676;BME280;4876;42.656;23.292;2023-04-08T09:16:43;94537.56;;;9.29;62.13
9676;BME280;4876;42.656;23.292;2023-04-08T09:19:11;94531.75;;;9.32;61.46
9676;BME280;4876;42.656;23.292;2023-04-08T09:21:41;94528.78;;;9.48;61.46
9676;BME280;4876;42.656;23.292;2023-04-08T09:24:08;94525.50;;;9.64;61.51
9676;BME280;4876;42.656;23.292;2023-04-08T09:26:36;94520.47;;;9.54;61.01
9676;BME280;4876;42.656;23.292;2023-04-08T09:29:04;94532.13;;;9.39;62.26
9676;BME280;4876;42.656;23.292;2023-04-08T09:31:33;94516.94;;;9.14;62.43
9676;BME280;4876;42.656;23.292;2023-04-08T09:34:08;94500.03;;;9.06;62.95
9676;BME280;4876;42.656;23.292;2023-04-08T09:36:35;94510.84;;;9.63;62.47
9676;BME280;4876;42.656;23.292;2023-04-08T09:39:04;94509.38;;;9.80;60.30
9676;BME280;4876;42.656;23.292;2023-04-08T09:41:33;94495.47;;;9.79;61.01
9676;BME280;4876;42.656;23.292;2023-04-08T09:44:02;94502.81;;;9.91;59.16
9676;BME280;4876;42.656;23.292;2023-04-08T09:46:32;94498.97;;;9.97;58.92
9676;BME280;4876;42.656;23.292;2023-04-08T09:49:05;94497.97;;;10.15;58.63
9676;BME280;4876;42.656;23.292;2023-04-08T09:51:35;94493.69;;;10.19;57.24
9676;BME280;4876;42.656;23.292;2023-04-08T09:54:11;94495.31;;;9.76;58.14
9676;BME280;4876;42.656;23.292;2023-04-08T09:56:42;94490.00;;;9.98;57.09
9676;BME280;4876;42.656;23.292;2023-04-08T09:59:13;94497.81;;;10.12;58.43
9676;BME280;4876;42.656;23.292;2023-04-08T10:01:45;94488.31;;;10.24;58.84
9676;BME280;4876;42.656;23.292;2023-04-08T10:04:14;94483.22;;;9.97;58.70
9676;BME280;4876;42.656;23.292;2023-04-08T10:06:42;94499.81;;;10.06;58.44
9676;BME280;4876;42.656;23.292;2023-04-08T10:09:10;94496.59;;;9.87;59.07
9676;BME280;4876;42.656;23.292;2023-04-08T10:11:38;94492.75;;;9.93;59.14
9676;BME280;4876;42.656;23.292;2023-04-08T10:14:05;94484.63;;;10.03;59.03
9676;BME280;4876;42.656;23.292;2023-04-08T10:16:32;94492.59;;;10.20;58.14
9676;BME280;4876;42.656;23.292;2023-04-08T10:18:59;94490.69;;;10.12;59.60
9676;BME280;4876;42.656;23.292;2023-04-08T10:21:37;94491.66;;;10.16;59.34
9676;BME280;4876;42.656;23.292;2023-04-08T10:24:10;94485.44;;;10.12;59.71
9676;BME280;4876;42.656;23.292;2023-04-08T10:26:39;94490.53;;;10.09;59.85
9676;BME280;4876;42.656;23.292;2023-04-08T10:32:28;94484.03;;;9.75;61.30
9676;BME280;4876;42.656;23.292;2023-04-08T10:34:55;94488.03;;;9.73;61.04
9676;BME280;4876;42.656;23.292;2023-04-08T10:37:22;94478.78;;;9.75;60.99
9676;BME280;4876;42.656;23.292;2023-04-08T10:39:53;94485.28;;;9.78;60.74
9676;BME280;4876;42.656;23.292;2023-04-08T10:42:26;94474.41;;;9.70;61.65
9676;BME280;4876;42.656;23.292;2023-04-08T10:44:53;94470.81;;;9.89;62.37
9676;BME280;4876;42.656;23.292;2023-04-08T10:47:24;94467.31;;;10.33;61.35
9676;BME280;4876;42.656;23.292;2023-04-08T10:49:52;94462.03;;;10.24;61.35
9676;BME280;4876;42.656;23.292;2023-04-08T10:52:19;94469.63;;;9.95;60.52
9676;BME280;4876;42.656;23.292;2023-04-08T10:54:47;94456.81;;;10.02;61.57
9676;BME280;4876;42.656;23.292;2023-04-08T10:57:22;94457.94;;;10.18;60.53
9676;BME280;4876;42.656;23.292;2023-04-08T10:59:49;94463.38;;;10.22;59.38
9676;BME280;4876;42.656;23.292;2023-04-08T11:02:16;94460.47;;;10.23;59.26
9676;BME280;4876;42.656;23.292;2023-04-08T11:04:43;94449.69;;;10.34;58.72
9676;BME280;4876;42.656;23.292;2023-04-08T11:07:12;94450.81;;;10.10;58.74
9676;BME280;4876;42.656;23.292;2023-04-08T11:09:39;94450.47;;;10.43;59.20
9676;BME280;4876;42.656;23.292;2023-04-08T11:12:06;94443.09;;;10.45;59.40
9676;BME280;4876;42.656;23.292;2023-04-08T11:14:35;94438.91;;;10.44;59.04
9676;BME280;4876;42.656;23.292;2023-04-08T11:17:02;94440.78;;;10.52;58.75
9676;BME280;4876;42.656;23.292;2023-04-08T11:19:30;94439.69;;;10.62;58.49
9676;BME280;4876;42.656;23.292;2023-04-08T11:21:57;94441.72;;;10.56;57.83
9676;BME280;4876;42.656;23.292;2023-04-08T11:24:25;94429.03;;;10.58;57.44
9676;BME280;4876;42.656;23.292;2023-04-08T11:26:54;94428.09;;;10.54;57.05
9676;BME280;4876;42.656;23.292;2023-04-08T11:29:21;94424.09;;;10.65;57.07
9676;BME280;4876;42.656;23.292;2023-04-08T11:31:50;94419.44;;;10.45;56.89
9676;BME280;4876;42.656;23.292;2023-04-08T11:34:21;94411.44;;;10.76;56.98
9676;BME280;4876;42.656;23.292;2023-04-08T11:36:49;94388.53;;;10.76;56.59
9676;BME280;4876;42.656;23.292;2023-04-08T11:39:16;94412.69;;;11.13;56.13
9676;BME280;4876;42.656;23.292;2023-04-08T11:41:43;94405.09;;;10.94;54.26
9676;BME280;4876;42.656;23.292;2023-04-08T11:44:10;94404.16;;;11.25;55.00
9676;BME280;4876;42.656;23.292;2023-04-08T11:46:36;94404.91;;;11.17;52.56
9676;BME280;4876;42.656;23.292;2023-04-08T11:49:07;94381.69;;;11.10;53.42
9676;BME280;4876;42.656;23.292;2023-04-08T11:51:53;94395.00;;;11.05;53.77
9676;BME280;4876;42.656;23.292;2023-04-08T11:54:26;94399.19;;;11.15;54.17
9676;BME280;4876;42.656;23.292;2023-04-08T11:56:53;94396.13;;;10.95;54.06
9676;BME280;4876;42.656;23.292;2023-04-08T11:59:22;94389.59;;;10.93;54.82
9676;BME280;4876;42.656;23.292;2023-04-08T12:01:50;94377.84;;;10.99;54.59
9676;BME280;4876;42.656;23.292;2023-04-08T12:04:18;94381.22;;;11.17;54.81
9676;BME280;4876;42.656;23.292;2023-04-08T12:06:45;94375.66;;;11.27;54.79
9676;BME280;4876;42.656;23.292;2023-04-08T12:09:12;94391.91;;;11.38;55.15
9676;BME280;4876;42.656;23.292;2023-04-08T12:11:39;94366.97;;;11.26;55.20
9676;BME280;4876;42.656;23.292;2023-04-08T12:16:51;94366.47;;;11.42;54.94
9676;BME280;4876;42.656;23.292;2023-04-08T12:19:38;94372.19;;;11.52;54.86
9676;BME280;4876;42.656;23.292;2023-04-08T12:22:11;94372.09;;;11.31;54.41
9676;BME280;4876;42.656;23.292;2023-04-08T12:24:38;94377.66;;;11.21;55.26
9676;BME280;4876;42.656;23.292;2023-04-08T12:27:05;94359.75;;;11.06;56.00
9676;BME280;4876;42.656;23.292;2023-04-08T12:29:31;94366.09;;;10.96;54.95
9676;BME280;4876;42.656;23.292;2023-04-08T12:31:58;94346.44;;;10.76;56.30
9676;BME280;4876;42.656;23.292;2023-04-08T12:34:28;94355.09;;;10.86;55.91
9676;BME280;4876;42.656;23.292;2023-04-08T12:36:54;94358.03;;;10.93;54.16
9676;BME280;4876;42.656;23.292;2023-04-08T12:39:21;94355.09;;;10.94;55.06
9676;BME280;4876;42.656;23.292;2023-04-08T12:41:48;94348.75;;;10.78;54.92
9676;BME280;4876;42.656;23.292;2023-04-08T12:44:15;94346.44;;;10.68;55.38
9676;BME280;4876;42.656;23.292;2023-04-08T12:46:41;94351.09;;;10.62;55.13
9676;BME280;4876;42.656;23.292;2023-04-08T12:49:08;94353.84;;;10.40;56.72
9676;BME280;4876;42.656;23.292;2023-04-08T12:51:37;94350.75;;;10.38;56.53
9676;BME280;4876;42.656;23.292;2023-04-08T12:54:05;94362.50;;;10.32;55.98
9676;BME280;4876;42.656;23.292;2023-04-08T12:56:32;94372.84;;;10.28;56.43
9676;BME280;4876;42.656;23.292;2023-04-08T12:58:59;94382.91;;;10.35;56.23
9676;BME280;4876;42.656;23.292;2023-04-08T13:01:26;94374.22;;;10.26;56.64
9676;BME280;4876;42.656;23.292;2023-04-08T13:03:53;94394.81;;;10.49;56.14
9676;BME280;4876;42.656;23.292;2023-04-08T13:06:21;94390.66;;;10.40;55.58
9676;BME280;4876;42.656;23.292;2023-04-08T13:08:49;94380.94;;;10.58;55.98
9676;BME280;4876;42.656;23.292;2023-04-08T13:11:16;94371.78;;;10.55;55.82
9676;BME280;4876;42.656;23.292;2023-04-08T13:13:43;94368.06;;;10.47;56.42
9676;BME280;4876;42.656;23.292;2023-04-08T13:16:10;94374.34;;;10.20;58.43
9676;BME280;4876;42.656;23.292;2023-04-08T13:18:38;94366.59;;;10.15;61.09
9676;BME280;4876;42.656;23.292;2023-04-08T13:21:05;94360.72;;;10.18;61.53
9676;BME280;4876;42.656;23.292;2023-04-08T13:23:32;94365.97;;;10.10;60.86
9676;BME280;4876;42.656;23.292;2023-04-08T13:26:00;94369.53;;;10.22;59.42
9676;BME280;4876;42.656;23.292;2023-04-08T13:28:27;94370.66;;;10.30;60.20
9676;BME280;4876;42.656;23.292;2023-04-08T13:30:54;94367.75;;;10.32;60.93